createdAt,value
2018-02-27T00:01:08.739Z,-1.94
2018-02-27T00:03:37.231Z,-1.81
2018-02-27T00:06:05.691Z,-1.82
2018-02-27T00:08:34.211Z,-1.83
2018-02-27T00:11:02.817Z,-1.76
2018-02-27T00:13:31.375Z,-1.88
2018-02-27T00:16:00.946Z,-1.99
2018-02-27T00:18:30.033Z,-2.16
2018-02-27T00:20:58.509Z,-2.15
2018-02-27T00:23:27.187Z,-2.11
2018-02-27T00:25:55.632Z,-2.01
2018-02-27T00:28:24.129Z,-2.15
2018-02-27T00:30:52.627Z,-2.05
2018-02-27T00:33:21.077Z,-2.05
2018-02-27T00:35:49.557Z,-1.96
2018-02-27T00:38:18.065Z,-2.01
2018-02-27T00:40:46.520Z,-2.08
2018-02-27T00:43:14.935Z,-1.91
2018-02-27T00:45:44.047Z,-1.95
2018-02-27T00:48:12.507Z,-1.97
2018-02-27T00:50:40.995Z,-1.90
2018-02-27T00:53:09.518Z,-2.00
2018-02-27T00:55:37.968Z,-2.09
2018-02-27T00:58:06.578Z,-1.93
2018-02-27T01:00:35.162Z,-1.84
2018-02-27T01:03:03.709Z,-1.92
2018-02-27T01:05:32.242Z,-1.94
2018-02-27T01:08:00.894Z,-1.98
2018-02-27T01:10:29.366Z,-1.94
2018-02-27T01:12:57.841Z,-1.93
2018-02-27T01:15:26.645Z,-2.10
2018-02-27T01:17:55.086Z,-2.01
2018-02-27T01:20:23.566Z,-2.02
2018-02-27T01:22:52.076Z,-2.05
2018-02-27T01:25:20.522Z,-2.11
2018-02-27T01:27:48.950Z,-2.09
2018-02-27T01:30:17.416Z,-2.11
2018-02-27T01:32:45.864Z,-2.09
2018-02-27T01:35:14.310Z,-2.06
2018-02-27T01:37:43.796Z,-2.00
2018-02-27T01:40:12.232Z,-2.06
2018-02-27T01:42:40.672Z,-2.10
2018-02-27T01:45:09.150Z,-2.00
2018-02-27T01:47:37.681Z,-2.06
2018-02-27T01:50:06.158Z,-2.01
2018-02-27T01:52:34.698Z,-2.13
2018-02-27T01:55:03.152Z,-2.06
2018-02-27T01:57:31.660Z,-2.08
2018-02-27T02:00:00.191Z,-2.04
2018-02-27T02:02:28.624Z,-2.04
2018-02-27T02:04:57.090Z,-2.14
2018-02-27T02:07:25.692Z,-2.25
2018-02-27T02:09:54.159Z,-2.26
2018-02-27T02:12:22.581Z,-2.28
2018-02-27T02:14:51.038Z,-2.35
2018-02-27T02:17:19.528Z,-2.37
2018-02-27T02:19:47.970Z,-2.43
2018-02-27T02:22:16.450Z,-2.39
2018-02-27T02:24:44.942Z,-2.36
2018-02-27T02:27:13.724Z,-2.43
2018-02-27T02:29:42.186Z,-2.40
2018-02-27T02:32:10.594Z,-2.34
2018-02-27T02:34:39.102Z,-2.39
2018-02-27T02:37:07.650Z,-2.41
2018-02-27T02:39:36.107Z,-2.32
2018-02-27T02:42:22.526Z,-2.24
2018-02-27T02:44:51.961Z,-2.41
2018-02-27T02:47:20.519Z,-2.43
2018-02-27T02:49:49.008Z,-2.40
2018-02-27T02:52:17.476Z,-2.36
2018-02-27T02:54:46.055Z,-2.26
2018-02-27T02:57:14.534Z,-2.17
2018-02-27T02:59:43.033Z,-2.24
2018-02-27T03:02:11.460Z,-2.29
2018-02-27T03:04:39.965Z,-2.31
2018-02-27T03:07:08.390Z,-2.34
2018-02-27T03:09:36.913Z,-2.31
2018-02-27T03:12:05.756Z,-2.29
2018-02-27T03:14:34.330Z,-2.27
2018-02-27T03:17:02.776Z,-2.25
2018-02-27T03:19:31.338Z,-2.34
2018-02-27T03:21:59.951Z,-2.42
2018-02-27T03:24:28.430Z,-2.30
2018-02-27T03:26:56.920Z,-2.22
2018-02-27T03:29:25.352Z,-2.38
2018-02-27T03:31:53.773Z,-2.31
2018-02-27T03:34:22.318Z,-2.15
2018-02-27T03:36:52.715Z,-2.11
2018-02-27T03:39:21.196Z,-2.17
2018-02-27T03:41:49.753Z,-2.27
2018-02-27T03:44:18.222Z,-2.23
2018-02-27T03:46:46.696Z,-2.21
2018-02-27T03:49:15.143Z,-2.24
2018-02-27T03:51:43.567Z,-2.15
2018-02-27T03:54:12.014Z,-2.23
2018-02-27T03:56:40.607Z,-2.18
2018-02-27T03:59:09.093Z,-2.04
2018-02-27T04:01:37.620Z,-2.04
2018-02-27T04:04:06.523Z,-2.13
2018-02-27T04:06:35.167Z,-2.19
2018-02-27T04:09:03.783Z,-2.28
2018-02-27T04:11:32.290Z,-2.26
2018-02-27T04:14:00.878Z,-2.19
2018-02-27T04:16:29.425Z,-2.19
2018-02-27T04:18:58.354Z,-2.09
2018-02-27T04:21:26.875Z,-2.08
2018-02-27T04:23:55.355Z,-2.20
2018-02-27T04:26:23.810Z,-2.16
2018-02-27T04:28:52.283Z,-2.19
2018-02-27T04:31:20.704Z,-2.16
2018-02-27T04:33:49.182Z,-2.26
2018-02-27T04:36:17.618Z,-2.34
2018-02-27T04:38:46.129Z,-2.35
2018-02-27T04:41:14.690Z,-2.39
2018-02-27T04:43:43.150Z,-2.38
2018-02-27T04:46:11.604Z,-2.32
2018-02-27T04:48:40.451Z,-2.27
2018-02-27T04:51:09.018Z,-2.18
2018-02-27T04:53:37.500Z,-2.27
2018-02-27T04:56:06.393Z,-2.28
2018-02-27T04:58:34.982Z,-2.39
2018-02-27T05:01:03.507Z,-2.47
2018-02-27T05:03:32.090Z,-2.45
2018-02-27T05:06:00.638Z,-2.38
2018-02-27T05:08:29.218Z,-2.46
2018-02-27T05:10:57.894Z,-2.56
2018-02-27T05:13:26.387Z,-2.67
2018-02-27T05:15:54.816Z,-2.60
2018-02-27T05:18:23.421Z,-2.46
2018-02-27T05:20:52.336Z,-2.46
2018-02-27T05:23:20.773Z,-2.34
2018-02-27T05:25:49.387Z,-2.37
2018-02-27T05:28:20.078Z,-2.39
2018-02-27T05:30:48.539Z,-2.28
2018-02-27T05:33:17.016Z,-2.31
2018-02-27T05:35:45.494Z,-2.36
2018-02-27T05:38:13.931Z,-2.38
2018-02-27T05:40:42.559Z,-2.36
2018-02-27T05:43:11.890Z,-2.43
2018-02-27T05:45:40.343Z,-2.46
2018-02-27T05:48:08.839Z,-2.54
2018-02-27T05:50:37.360Z,-2.60
2018-02-27T05:53:05.844Z,-2.54
2018-02-27T05:55:34.384Z,-2.53
2018-02-27T05:58:02.851Z,-2.53
2018-02-27T06:00:31.457Z,-2.49
2018-02-27T06:03:00.583Z,-2.52
2018-02-27T06:05:29.019Z,-2.51
2018-02-27T06:07:57.536Z,-2.59
2018-02-27T06:10:26.251Z,-2.53
2018-02-27T06:12:54.783Z,-2.59
2018-02-27T06:15:23.203Z,-2.52
2018-02-27T06:17:51.731Z,-2.51
2018-02-27T06:20:20.198Z,-2.55
2018-02-27T06:22:48.733Z,-2.56
2018-02-27T06:25:17.489Z,-2.57
2018-02-27T06:27:47.268Z,-2.57
2018-02-27T06:30:15.714Z,-2.45
2018-02-27T06:32:44.596Z,-2.53
2018-02-27T06:35:13.182Z,-2.85
2018-02-27T06:37:41.688Z,-3.00
2018-02-27T06:40:10.244Z,-3.03
2018-02-27T06:42:38.712Z,-2.96
2018-02-27T06:45:07.513Z,-3.01
2018-02-27T06:47:36.497Z,-2.91
2018-02-27T06:50:05.000Z,-2.68
2018-02-27T06:52:33.573Z,-2.60
2018-02-27T06:55:03.077Z,-2.52
2018-02-27T06:57:31.621Z,-2.53
2018-02-27T07:00:00.119Z,-2.40
2018-02-27T07:02:28.622Z,-2.42
2018-02-27T07:04:57.087Z,-2.51
2018-02-27T07:07:25.649Z,-2.38
2018-02-27T07:09:54.150Z,-2.51
2018-02-27T07:12:28.260Z,-2.50
2018-02-27T07:14:56.846Z,-2.40
2018-02-27T07:17:25.339Z,-2.38
2018-02-27T07:19:53.823Z,-2.42
2018-02-27T07:22:22.797Z,-2.50
2018-02-27T07:24:51.219Z,-2.48
2018-02-27T07:27:19.703Z,-2.41
2018-02-27T07:29:48.243Z,-2.38
2018-02-27T07:32:16.722Z,-2.34
2018-02-27T07:34:45.202Z,-2.37
2018-02-27T07:37:14.091Z,-2.39
2018-02-27T07:39:42.575Z,-2.42
2018-02-27T07:42:11.056Z,-2.45
2018-02-27T07:44:39.576Z,-2.43
2018-02-27T07:47:08.136Z,-2.29
2018-02-27T07:49:36.591Z,-2.20
2018-02-27T07:52:05.480Z,-2.23
2018-02-27T07:54:34.014Z,-2.23
2018-02-27T07:57:02.515Z,-2.12
2018-02-27T07:59:31.124Z,-1.90
2018-02-27T08:01:59.762Z,-2.13
2018-02-27T08:04:28.195Z,-1.98
2018-02-27T08:06:57.651Z,-1.85
2018-02-27T08:09:27.134Z,-1.82
2018-02-27T08:11:55.583Z,-1.80
2018-02-27T08:14:24.064Z,-1.99
2018-02-27T08:16:52.544Z,-1.79
2018-02-27T08:19:21.031Z,-1.50
2018-02-27T08:21:50.128Z,-1.47
2018-02-27T08:24:20.754Z,-1.44
2018-02-27T08:26:49.228Z,-1.51
2018-02-27T08:29:17.725Z,-1.58
2018-02-27T08:31:46.707Z,-1.53
2018-02-27T08:34:15.166Z,-1.82
2018-02-27T08:36:43.801Z,-1.96
2018-02-27T08:39:12.234Z,-1.82
2018-02-27T08:41:40.742Z,-1.68
2018-02-27T08:44:10.442Z,-1.69
2018-02-27T08:46:38.969Z,-1.79
2018-02-27T08:49:07.621Z,-1.90
2018-02-27T08:51:36.477Z,-2.00
2018-02-27T08:54:04.997Z,-2.08
2018-02-27T08:56:33.493Z,-2.24
2018-02-27T08:59:01.975Z,-2.22
2018-02-27T09:01:30.444Z,-1.89
2018-02-27T09:03:58.899Z,-1.88
2018-02-27T09:06:28.669Z,-1.69
2018-02-27T09:08:57.069Z,-0.91
2018-02-27T09:11:25.498Z,0.28
2018-02-27T09:13:54.745Z,0.82
2018-02-27T09:16:23.162Z,0.70
2018-02-27T09:18:58.594Z,1.09
2018-02-27T09:21:27.007Z,0.71
2018-02-27T09:23:55.452Z,0.10
2018-02-27T09:26:24.210Z,0.85
2018-02-27T09:28:52.633Z,0.48
2018-02-27T09:31:21.118Z,-0.26
2018-02-27T09:33:50.391Z,-1.02
2018-02-27T09:36:18.855Z,-1.34
2018-02-27T09:38:47.335Z,-1.28
2018-02-27T09:41:16.627Z,-1.57
2018-02-27T09:43:45.076Z,-1.88
2018-02-27T09:46:13.494Z,-2.23
2018-02-27T09:48:42.068Z,-2.33
2018-02-27T09:51:10.489Z,-2.52
2018-02-27T09:53:38.936Z,-2.63
2018-02-27T09:56:08.023Z,-2.49
2018-02-27T09:58:36.477Z,-2.52
2018-02-27T10:01:05.025Z,-2.12
2018-02-27T10:03:33.693Z,-1.90
2018-02-27T10:06:02.208Z,-2.16
2018-02-27T10:08:30.969Z,-2.12
2018-02-27T10:10:59.541Z,-2.10
2018-02-27T10:13:31.002Z,-1.81
2018-02-27T10:15:59.698Z,-1.76
2018-02-27T10:18:28.152Z,-2.16
2018-02-27T10:20:56.577Z,-2.02
2018-02-27T10:23:25.012Z,-2.06
2018-02-27T10:25:53.947Z,-1.90
2018-02-27T10:28:22.391Z,-2.22
2018-02-27T10:30:50.941Z,-2.31
2018-02-27T10:33:19.425Z,-2.13
2018-02-27T10:35:48.350Z,-2.06
2018-02-27T10:38:16.789Z,-2.06
2018-02-27T10:40:45.268Z,-2.02
2018-02-27T10:43:13.806Z,-1.69
2018-02-27T10:45:42.380Z,-1.07
2018-02-27T10:48:10.985Z,-1.05
2018-02-27T10:50:39.607Z,-1.11
2018-02-27T10:53:08.149Z,-1.07
2018-02-27T10:55:37.146Z,-1.77
2018-02-27T10:58:05.627Z,-1.64
2018-02-27T11:00:40.992Z,-1.52
2018-02-27T11:03:09.555Z,-1.67
2018-02-27T11:05:38.060Z,-1.90
2018-02-27T11:08:06.588Z,-1.63
2018-02-27T11:10:35.074Z,-1.64
2018-02-27T11:13:03.653Z,-1.51
2018-02-27T11:15:33.083Z,-1.49
2018-02-27T11:18:01.587Z,-1.57
2018-02-27T11:20:30.073Z,-1.56
2018-02-27T11:22:58.860Z,-1.28
2018-02-27T11:25:27.305Z,-0.97
2018-02-27T11:27:55.743Z,-0.31
2018-02-27T11:30:24.248Z,0.23
2018-02-27T11:32:53.198Z,0.05
2018-02-27T11:35:21.613Z,-0.31
2018-02-27T11:37:50.226Z,-1.00
2018-02-27T11:40:18.704Z,-0.75
2018-02-27T11:42:47.146Z,-0.77
2018-02-27T11:45:15.797Z,-0.98
2018-02-27T11:47:44.267Z,-1.43
2018-02-27T11:50:12.747Z,-1.63
2018-02-27T11:52:41.311Z,-1.51
2018-02-27T11:55:10.577Z,-1.25
2018-02-27T11:57:39.108Z,-1.11
2018-02-27T12:00:07.718Z,-1.57
2018-02-27T12:02:36.300Z,-1.58
2018-02-27T12:05:04.975Z,-1.49
2018-02-27T12:07:33.558Z,-1.06
2018-02-27T12:10:02.147Z,-0.50
2018-02-27T12:12:30.733Z,-0.68
2018-02-27T12:14:59.307Z,-0.74
2018-02-27T12:17:27.982Z,-1.16
2018-02-27T12:19:57.278Z,-1.49
2018-02-27T12:22:25.777Z,-1.35
2018-02-27T12:24:54.238Z,-1.20
2018-02-27T12:27:24.401Z,-1.09
2018-02-27T12:29:53.404Z,-0.91
2018-02-27T12:32:21.894Z,-0.81
2018-02-27T12:34:50.371Z,-1.20
2018-02-27T12:37:18.879Z,-1.39
2018-02-27T12:39:47.340Z,-1.34
2018-02-27T12:42:15.846Z,-1.68
2018-02-27T12:44:45.763Z,-1.45
2018-02-27T12:47:14.216Z,-1.47
2018-02-27T12:49:42.668Z,-1.35
2018-02-27T12:52:11.182Z,-1.46
2018-02-27T12:54:39.680Z,-1.46
2018-02-27T12:57:08.218Z,-1.42
2018-02-27T12:59:36.954Z,-1.43
2018-02-27T13:02:05.497Z,-1.56
2018-02-27T13:04:34.075Z,-1.51
2018-02-27T13:07:03.450Z,-1.73
2018-02-27T13:09:31.938Z,-1.47
2018-02-27T13:12:02.326Z,-1.60
2018-02-27T13:14:31.662Z,-1.58
2018-02-27T13:17:00.150Z,-1.87
2018-02-27T13:19:28.672Z,-1.84
2018-02-27T13:21:58.022Z,-1.69
2018-02-27T13:24:26.534Z,-1.56
2018-02-27T13:26:54.960Z,-1.55
2018-02-27T13:29:23.542Z,-1.72
2018-02-27T13:31:51.994Z,-1.92
2018-02-27T13:34:20.431Z,-1.85
2018-02-27T13:36:48.890Z,-2.11
2018-02-27T13:39:17.327Z,-2.04
2018-02-27T13:41:45.799Z,-1.94
2018-02-27T13:44:14.313Z,-1.66
2018-02-27T13:46:42.816Z,-1.57
2018-02-27T13:49:11.379Z,-1.62
2018-02-27T13:51:40.860Z,-1.56
2018-02-27T13:54:09.622Z,-1.63
2018-02-27T13:56:38.159Z,-1.56
2018-02-27T13:59:08.182Z,-1.47
2018-02-27T14:01:36.663Z,-1.81
2018-02-27T14:04:05.122Z,-2.17
2018-02-27T14:06:33.625Z,-2.44
2018-02-27T14:09:02.288Z,-2.78
2018-02-27T14:11:31.134Z,-2.89
2018-02-27T14:14:01.205Z,-2.91
2018-02-27T14:16:29.679Z,-2.84
2018-02-27T14:18:58.165Z,-2.91
2018-02-27T14:21:26.854Z,-2.85
2018-02-27T14:23:55.466Z,-2.82
2018-02-27T14:26:23.891Z,-2.70
2018-02-27T14:28:52.413Z,-2.69
2018-02-27T14:31:20.877Z,-2.47
2018-02-27T14:33:49.321Z,-2.53
2018-02-27T14:36:17.801Z,-2.09
2018-02-27T14:38:46.235Z,-2.08
2018-02-27T14:41:14.641Z,-1.99
2018-02-27T14:43:43.226Z,-2.01
2018-02-27T14:46:11.705Z,-1.90
2018-02-27T14:48:40.151Z,-1.84
2018-02-27T14:51:08.704Z,-2.11
2018-02-27T14:53:37.217Z,-2.01
2018-02-27T14:56:05.974Z,-1.84
2018-02-27T14:58:35.475Z,-1.97
2018-02-27T15:01:03.987Z,-1.98
2018-02-27T15:03:32.609Z,-1.80
2018-02-27T15:06:01.559Z,-2.02
2018-02-27T15:08:30.084Z,-1.91
2018-02-27T15:10:58.530Z,-1.98
2018-02-27T15:13:27.035Z,-2.12
2018-02-27T15:15:55.474Z,-2.09
2018-02-27T15:18:23.898Z,-1.90
2018-02-27T15:20:52.491Z,-1.99
2018-02-27T15:23:20.925Z,-2.09
2018-02-27T15:25:49.354Z,-2.19
2018-02-27T15:28:18.225Z,-2.34
2018-02-27T15:30:46.646Z,-2.39
2018-02-27T15:33:15.147Z,-2.23
2018-02-27T15:35:44.000Z,-2.29
2018-02-27T15:38:12.534Z,-2.46
2018-02-27T15:40:41.050Z,-2.44
2018-02-27T15:43:09.697Z,-2.52
2018-02-27T15:45:38.144Z,-2.47
2018-02-27T15:48:06.677Z,-2.57
2018-02-27T15:50:35.413Z,-2.71
2018-02-27T15:53:03.920Z,-2.82
2018-02-27T15:55:33.382Z,-2.82
2018-02-27T15:58:02.378Z,-2.75
2018-02-27T16:00:33.524Z,-2.70
2018-02-27T16:03:02.416Z,-2.82
2018-02-27T16:05:35.391Z,-2.78
2018-02-27T16:08:08.907Z,-2.82
2018-02-27T16:10:37.522Z,-2.92
2018-02-27T16:13:06.081Z,-2.93
2018-02-27T16:15:34.859Z,-2.95
2018-02-27T16:18:03.707Z,-3.07
2018-02-27T16:20:32.422Z,-3.17
2018-02-27T16:23:01.075Z,-3.05
2018-02-27T16:25:31.557Z,-3.20
2018-02-27T16:28:01.844Z,-3.04
2018-02-27T16:30:32.282Z,-3.12
2018-02-27T16:33:07.088Z,-3.07
2018-02-27T16:35:35.608Z,-3.21
2018-02-27T16:38:06.550Z,-3.24
2018-02-27T16:40:36.368Z,-3.25
2018-02-27T16:43:05.314Z,-3.19
2018-02-27T16:45:34.699Z,-3.16
2018-02-27T16:48:04.267Z,-3.14
2018-02-27T16:50:34.302Z,-3.18
2018-02-27T16:53:02.947Z,-3.32
2018-02-27T16:55:33.792Z,-3.33
2018-02-27T16:58:02.272Z,-3.26
2018-02-27T17:00:30.818Z,-3.26
2018-02-27T17:03:00.293Z,-3.12
2018-02-27T17:05:28.822Z,-3.18
2018-02-27T17:07:57.385Z,-3.14
2018-02-27T17:10:26.115Z,-3.24
2018-02-27T17:12:54.581Z,-3.16
2018-02-27T17:15:23.142Z,-3.11
2018-02-27T17:17:52.260Z,-3.06
2018-02-27T17:20:20.739Z,-3.10
2018-02-27T17:22:49.252Z,-3.20
2018-02-27T17:25:17.741Z,-3.22
2018-02-27T17:27:46.278Z,-3.25
2018-02-27T17:30:14.746Z,-3.24
2018-02-27T17:32:43.334Z,-3.17
2018-02-27T17:35:11.768Z,-3.14
2018-02-27T17:37:40.456Z,-3.15
2018-02-27T17:40:09.827Z,-3.28
2018-02-27T17:42:38.279Z,-3.35
2018-02-27T17:45:06.739Z,-3.27
2018-02-27T17:47:36.038Z,-3.19
2018-02-27T17:50:04.621Z,-3.23
2018-02-27T17:52:33.108Z,-3.34
2018-02-27T17:55:02.716Z,-3.22
2018-02-27T17:57:31.983Z,-3.19
2018-02-27T18:00:00.598Z,-3.20
2018-02-27T18:02:29.896Z,-3.14
2018-02-27T18:04:58.414Z,-3.14
2018-02-27T18:07:26.857Z,-3.12
2018-02-27T18:09:55.377Z,-3.27
2018-02-27T18:12:23.832Z,-3.33
2018-02-27T18:14:52.359Z,-3.42
2018-02-27T18:17:21.730Z,-3.52
2018-02-27T18:19:50.224Z,-3.43
2018-02-27T18:22:18.981Z,-3.41
2018-02-27T18:24:47.589Z,-3.50
2018-02-27T18:27:16.179Z,-3.50
2018-02-27T18:29:44.682Z,-3.52
2018-02-27T18:32:13.392Z,-3.57
2018-02-27T18:34:41.826Z,-3.64
2018-02-27T18:37:10.258Z,-3.55
2018-02-27T18:39:38.911Z,-3.62
2018-02-27T18:42:07.543Z,-3.56
2018-02-27T18:44:36.346Z,-3.57
2018-02-27T18:47:04.986Z,-3.75
2018-02-27T18:49:33.445Z,-3.65
2018-02-27T18:52:02.083Z,-3.62
2018-02-27T18:54:30.902Z,-3.76
2018-02-27T18:56:59.649Z,-3.77
2018-02-27T18:59:28.194Z,-3.78
2018-02-27T19:01:56.843Z,-3.75
2018-02-27T19:04:25.447Z,-3.94
2018-02-27T19:06:53.971Z,-3.93
2018-02-27T19:09:23.151Z,-3.84
2018-02-27T19:11:51.712Z,-3.93
2018-02-27T19:14:20.336Z,-3.97
2018-02-27T19:16:49.715Z,-3.91
2018-02-27T19:19:18.223Z,-4.02
2018-02-27T19:21:46.776Z,-4.03
2018-02-27T19:24:15.275Z,-4.08
2018-02-27T19:26:43.817Z,-4.01
2018-02-27T19:29:12.325Z,-4.19
2018-02-27T19:31:41.060Z,-4.06
2018-02-27T19:34:09.546Z,-4.26
2018-02-27T19:36:37.998Z,-4.28
2018-02-27T19:39:07.415Z,-4.37
2018-02-27T19:41:35.926Z,-4.30
2018-02-27T19:44:04.702Z,-4.34
2018-02-27T19:46:34.172Z,-4.30
2018-02-27T19:49:02.871Z,-4.40
2018-02-27T19:51:31.669Z,-4.36
2018-02-27T19:54:00.930Z,-4.34
2018-02-27T19:56:30.750Z,-4.44
2018-02-27T19:58:59.344Z,-4.36
2018-02-27T20:01:29.079Z,-4.43
2018-02-27T20:03:59.115Z,-4.38
2018-02-27T20:06:27.633Z,-4.43
2018-02-27T20:08:56.636Z,-4.51
2018-02-27T20:11:25.347Z,-4.46
2018-02-27T20:13:54.634Z,-4.62
2018-02-27T20:16:23.131Z,-4.61
2018-02-27T20:18:51.682Z,-4.46
2018-02-27T20:21:20.438Z,-4.54
2018-02-27T20:23:55.034Z,-4.40
2018-02-27T20:26:23.707Z,-4.55
2018-02-27T20:28:57.918Z,-4.56
2018-02-27T20:31:26.883Z,-4.55
2018-02-27T20:33:55.452Z,-4.47
2018-02-27T20:36:23.932Z,-4.50
2018-02-27T20:38:58.011Z,-4.57
2018-02-27T20:41:26.677Z,-4.65
2018-02-27T20:43:55.201Z,-4.63
2018-02-27T20:46:23.685Z,-4.61
2018-02-27T20:48:53.670Z,-4.75
2018-02-27T20:51:22.189Z,-4.74
2018-02-27T20:53:50.746Z,-4.85
2018-02-27T20:56:20.598Z,-4.67
2018-02-27T20:58:49.387Z,-4.78
2018-02-27T21:01:18.100Z,-4.76
2018-02-27T21:03:48.057Z,-4.91
2018-02-27T21:06:16.655Z,-4.88
2018-02-27T21:08:45.092Z,-4.94
2018-02-27T21:11:14.055Z,-4.84
2018-02-27T21:13:42.593Z,-4.99
2018-02-27T21:16:11.325Z,-5.11
2018-02-27T21:18:39.881Z,-5.02
2018-02-27T21:21:08.384Z,-5.00
2018-02-27T21:23:37.052Z,-4.98
2018-02-27T21:26:06.518Z,-4.96
2018-02-27T21:28:35.348Z,-4.99
2018-02-27T21:31:04.036Z,-5.10
2018-02-27T21:33:33.029Z,-5.01
2018-02-27T21:36:01.819Z,-5.14
2018-02-27T21:38:30.287Z,-5.16
2018-02-27T21:40:58.837Z,-5.21
2018-02-27T21:43:27.426Z,-5.16
2018-02-27T21:45:55.877Z,-5.18
2018-02-27T21:48:24.432Z,-5.32
2018-02-27T21:50:52.863Z,-5.20
2018-02-27T21:53:21.405Z,-5.16
2018-02-27T21:55:50.455Z,-5.26
2018-02-27T21:58:18.888Z,-5.21
2018-02-27T22:00:47.332Z,-5.19
2018-02-27T22:03:16.104Z,-5.24
2018-02-27T22:05:44.537Z,-5.18
2018-02-27T22:08:12.984Z,-5.17
2018-02-27T22:10:41.522Z,-5.37
2018-02-27T22:13:10.072Z,-5.36
2018-02-27T22:15:38.563Z,-5.32
2018-02-27T22:18:07.725Z,-5.39
2018-02-27T22:20:36.271Z,-5.39
2018-02-27T22:23:05.179Z,-5.36
2018-02-27T22:25:35.559Z,-5.46
2018-02-27T22:28:04.696Z,-5.36
2018-02-27T22:30:33.229Z,-5.50
2018-02-27T22:33:02.900Z,-5.58
2018-02-27T22:35:31.585Z,-5.43
2018-02-27T22:38:00.080Z,-5.66
2018-02-27T22:40:28.612Z,-5.49
2018-02-27T22:42:57.131Z,-5.60
2018-02-27T22:45:25.564Z,-5.62
2018-02-27T22:47:54.668Z,-5.72
2018-02-27T22:50:23.095Z,-5.69
2018-02-27T22:52:51.594Z,-5.69
2018-02-27T22:55:21.040Z,-5.69
2018-02-27T22:57:49.459Z,-5.76
2018-02-27T23:00:29.761Z,-5.78
2018-02-27T23:02:58.300Z,-5.72
2018-02-27T23:05:27.460Z,-5.83
2018-02-27T23:07:56.388Z,-5.72
2018-02-27T23:10:24.839Z,-5.66
2018-02-27T23:12:53.264Z,-5.73
2018-02-27T23:15:22.943Z,-5.64
2018-02-27T23:17:51.373Z,-5.55
2018-02-27T23:20:19.804Z,-5.57
2018-02-27T23:22:48.519Z,-5.67
2018-02-27T23:25:38.378Z,-5.60
2018-02-27T23:28:08.497Z,-5.76
2018-02-27T23:30:38.613Z,-5.84
2018-02-27T23:33:09.823Z,-5.65
2018-02-27T23:35:38.384Z,-5.88
2018-02-27T23:38:06.997Z,-5.90
2018-02-27T23:40:37.225Z,-5.90
2018-02-27T23:43:05.950Z,-5.94
2018-02-27T23:45:34.529Z,-6.04
2018-02-27T23:48:03.175Z,-5.83
2018-02-27T23:50:31.912Z,-5.86
2018-02-27T23:53:00.367Z,-5.84
2018-02-27T23:55:29.076Z,-5.94
2018-02-27T23:57:57.510Z,-5.94
